METAR Formatted Surface Weather Observation
Issued by NWS

Home | Current Version | Previous Version | Text Only | Print | Product List | Glossary On
Versions: 1 2 3 4 5 6 7
000
SAUS43 KMQT 301657 COR
MTRP59
METAR KP59 301651Z AUTO 36011KT 20/15 A3010 RMK AO1 SLP188 T02000150



USA.gov is the U.S. government's official web portal to all federal, state and local government web resources and services.